Time;durP1;ratioP1;P1;durP2;ratioP2;P2;SDS_P1;SDS_P2;PMS_P1;PMS_P2;Temp;Humidity;BMP_temperature;BMP_pressure;BME280_temperature;BME280_humidity;BME280_pressure;Samples;Min_cycle;Max_cycle;Signal;HPM_P1;HPM_P2
2022/12/28 00:02:17;;;;;;;;;;;;;;;10.60;37.17;100356.34;4470345;32;36355;-88
2022/12/28 00:04:45;;;;;;;;;;;;;;;10.21;37.70;100350.72;4483554;32;33564;-81
2022/12/28 00:07:13;;;;;;;;;;;;;;;9.72;38.75;100355.09;4494774;31;33984;-88
2022/12/28 00:09:40;;;;;;;;;;;;;;;9.70;39.07;100354.19;4482234;31;34510;-85
2022/12/28 00:12:07;;;;;;;;;;;;;;;10.01;38.72;100359.56;4482393;31;34545;-93
2022/12/28 00:14:35;;;;;;;;;;;;;;;9.98;38.66;100360.31;4483404;31;33195;-82
2022/12/28 00:17:02;;;;;;;;;;;;;;;9.84;38.78;100357.25;4481989;32;33662;-87
2022/12/28 00:19:29;;;;;;;;;;;;;;;10.10;38.43;100368.50;4467610;32;33787;-80
2022/12/28 00:21:56;;;;;;;;;;;;;;;10.16;38.30;100360.06;4483063;32;33853;-84
2022/12/28 00:24:24;;;;;;;;;;;;;;;10.17;38.16;100367.88;4479034;31;32999;-90
2022/12/28 00:26:51;;;;;;;;;;;;;;;10.12;38.27;100361.66;4468681;32;33952;-92
2022/12/28 00:29:19;;;;;;;;;;;;;;;10.41;37.80;100359.19;4482522;32;34438;-83
2022/12/28 00:31:46;;;;;;;;;;;;;;;10.40;37.83;100360.00;4481520;31;34363;-81
2022/12/28 00:34:13;;;;;;;;;;;;;;;10.03;38.62;100355.28;4489106;31;33534;-84
2022/12/28 00:36:41;;;;;;;;;;;;;;;10.10;38.55;100357.25;4498330;31;33995;-79
2022/12/28 00:39:28;;;;;;;;;;;;;;;9.90;38.83;100359.19;4473177;32;34193;-91
2022/12/28 00:41:55;;;;;;;;;;;;;;;9.86;39.07;100357.31;4479914;31;35128;-84
2022/12/28 00:44:22;;;;;;;;;;;;;;;9.93;38.95;100360.16;4498306;31;33642;-80
2022/12/28 00:46:50;;;;;;;;;;;;;;;9.81;39.40;100359.75;4495875;31;34871;-94
2022/12/28 00:49:17;;;;;;;;;;;;;;;9.84;39.45;100362.41;4499130;31;33868;-82
2022/12/28 00:51:44;;;;;;;;;;;;;;;9.71;39.39;100363.72;4487083;31;34802;-93
2022/12/28 00:54:12;;;;;;;;;;;;;;;9.80;39.48;100364.84;4484793;31;33688;-82
2022/12/28 00:56:41;;;;;;;;;;;;;;;9.63;39.72;100372.91;4484217;32;34196;-88
2022/12/28 00:59:09;;;;;;;;;;;;;;;9.79;39.65;100376.06;4472986;32;35215;-86
2022/12/28 01:01:36;;;;;;;;;;;;;;;9.60;39.96;100374.53;4476373;31;34454;-84
2022/12/28 01:04:04;;;;;;;;;;;;;;;9.61;40.00;100382.31;4500383;31;33412;-91
2022/12/28 01:06:31;;;;;;;;;;;;;;;9.68;39.83;100381.72;4489172;31;33797;-91
2022/12/28 01:08:58;;;;;;;;;;;;;;;9.89;39.53;100388.50;4500739;31;34309;-80
2022/12/28 01:11:27;;;;;;;;;;;;;;;10.00;39.31;100392.34;4483278;31;34547;-80
2022/12/28 01:13:55;;;;;;;;;;;;;;;9.93;39.21;100388.66;4469886;32;33254;-90
2022/12/28 01:16:24;;;;;;;;;;;;;;;9.66;39.00;100385.97;4470286;32;34182;-82
2022/12/28 01:18:52;;;;;;;;;;;;;;;9.91;38.68;100389.44;4483609;31;35337;-85
2022/12/28 01:21:20;;;;;;;;;;;;;;;10.01;38.59;100391.53;4470932;32;33977;-81
2022/12/28 01:23:48;;;;;;;;;;;;;;;9.93;38.60;100391.25;4495462;31;33637;-81
2022/12/28 01:26:15;;;;;;;;;;;;;;;10.14;38.31;100393.69;4500163;31;34230;-82
2022/12/28 01:28:44;;;;;;;;;;;;;;;10.35;37.56;100390.09;4487163;31;34222;-81
2022/12/28 01:31:12;;;;;;;;;;;;;;;10.32;37.61;100390.00;4470594;32;34381;-85
2022/12/28 01:33:40;;;;;;;;;;;;;;;10.12;38.04;100397.94;4468670;32;33645;-81
2022/12/28 01:36:07;;;;;;;;;;;;;;;9.60;38.63;100396.09;4468492;32;34043;-93
2022/12/28 01:38:36;;;;;;;;;;;;;;;9.70;38.50;100393.03;4480819;31;34387;-93
2022/12/28 01:41:11;;;;;;;;;;;;;;;9.96;38.00;100391.38;4473159;31;34476;-83
2022/12/28 01:43:39;;;;;;;;;;;;;;;9.71;38.49;100392.19;4486237;31;33936;-86
2022/12/28 01:46:12;;;;;;;;;;;;;;;9.61;38.63;100384.91;4500415;31;33130;-84
2022/12/28 01:48:41;;;;;;;;;;;;;;;9.20;39.48;100386.84;4484516;31;34307;-87
2022/12/28 01:51:09;;;;;;;;;;;;;;;9.43;39.06;100373.88;4485278;31;34509;-82
2022/12/28 01:53:36;;;;;;;;;;;;;;;9.44;39.00;100375.69;4483995;32;33509;-81
2022/12/28 01:56:03;;;;;;;;;;;;;;;9.56;38.99;100373.53;4484775;32;33970;-81
2022/12/28 01:58:30;;;;;;;;;;;;;;;9.49;39.12;100371.53;4471088;32;34101;-90
2022/12/28 02:00:58;;;;;;;;;;;;;;;9.39;39.37;100366.84;4483508;31;34576;-81
2022/12/28 02:03:26;;;;;;;;;;;;;;;9.22;39.56;100356.75;4472538;32;33716;-84
2022/12/28 02:05:55;;;;;;;;;;;;;;;9.36;39.44;100356.41;4470499;32;35075;-89
2022/12/28 02:08:31;;;;;;;;;;;;;;;9.50;39.33;100353.47;4472631;32;35127;-82
2022/12/28 02:10:59;;;;;;;;;;;;;;;9.56;39.05;100358.00;4486453;31;34653;-81
2022/12/28 02:13:26;;;;;;;;;;;;;;;9.43;39.13;100360.94;4500868;31;33509;-94
2022/12/28 02:15:56;;;;;;;;;;;;;;;9.63;38.87;100359.09;4500322;31;35118;-81
2022/12/28 02:18:24;;;;;;;;;;;;;;;9.93;38.39;100354.09;4498258;31;34413;-81
2022/12/28 02:21:13;;;;;;;;;;;;;;;9.83;38.42;100341.66;4470922;32;35210;-94
2022/12/28 02:24:04;;;;;;;;;;;;;;;9.67;38.92;100350.59;4476701;31;34141;-79
2022/12/28 02:26:31;;;;;;;;;;;;;;;9.39;39.53;100347.00;4482216;32;35119;-94
2022/12/28 02:29:07;;;;;;;;;;;;;;;9.50;39.38;100347.41;4485224;31;34449;-81
2022/12/28 02:31:42;;;;;;;;;;;;;;;9.63;39.27;100352.22;4496894;31;34423;-95
2022/12/28 02:34:20;;;;;;;;;;;;;;;9.65;39.06;100357.44;4485637;31;33757;-92
2022/12/28 02:36:54;;;;;;;;;;;;;;;9.38;39.52;100353.03;4486008;31;34439;-81
2022/12/28 02:39:26;;;;;;;;;;;;;;;9.55;39.22;100351.06;4486014;31;33748;-80
2022/12/28 02:41:53;;;;;;;;;;;;;;;9.56;39.30;100352.81;4471051;32;34574;-83
2022/12/28 02:50:07;;;;;;;;;;;;;;;9.71;38.91;100353.34;4468947;31;34141;-92
2022/12/28 02:52:35;;;;;;;;;;;;;;;9.65;39.04;100355.72;4481185;31;34613;-92
2022/12/28 02:58:10;;;;;;;;;;;;;;;9.70;38.89;100351.59;4484118;32;34737;-80
2022/12/28 03:00:56;;;;;;;;;;;;;;;9.77;38.82;100350.09;4483005;31;34552;-80
2022/12/28 03:03:38;;;;;;;;;;;;;;;9.35;39.64;100345.13;4499662;31;34571;-94
2022/12/28 03:09:27;;;;;;;;;;;;;;;9.74;38.99;100356.06;4478768;32;34119;-81
2022/12/28 03:11:59;;;;;;;;;;;;;;;9.64;39.07;100350.50;4483178;31;33977;-95
2022/12/28 03:14:28;;;;;;;;;;;;;;;9.28;39.70;100340.59;4469047;32;34617;-81
2022/12/28 03:31:05;;;;;;;;;;;;;;;9.52;39.20;100327.66;4483946;31;33973;-94
2022/12/28 03:34:06;;;;;;;;;;;;;;;9.62;38.91;100332.34;4473199;31;35704;-82
2022/12/28 03:36:34;;;;;;;;;;;;;;;9.69;38.72;100329.09;4484872;32;34637;-81
2022/12/28 03:39:07;;;;;;;;;;;;;;;9.68;38.50;100322.16;4485026;32;33491;-82
2022/12/28 03:41:35;;;;;;;;;;;;;;;9.43;38.95;100319.53;4483996;31;33760;-93
2022/12/28 03:44:06;;;;;;;;;;;;;;;9.31;39.26;100313.94;4484833;32;34841;-82
2022/12/28 03:46:42;;;;;;;;;;;;;;;9.65;38.82;100311.69;4471082;32;35252;-81
2022/12/28 03:49:10;;;;;;;;;;;;;;;9.63;38.94;100312.50;4471069;32;33391;-81
2022/12/28 03:51:38;;;;;;;;;;;;;;;9.70;38.90;100314.47;4469782;31;34191;-82
2022/12/28 03:54:06;;;;;;;;;;;;;;;9.58;39.33;100314.91;4486424;31;35094;-84
2022/12/28 03:56:34;;;;;;;;;;;;;;;9.67;39.16;100307.47;4472272;32;34887;-93
2022/12/28 03:59:03;;;;;;;;;;;;;;;9.80;39.01;100294.94;4471657;32;33599;-92
2022/12/28 04:01:31;;;;;;;;;;;;;;;9.72;39.16;100295.53;4483711;31;35001;-84
2022/12/28 04:03:58;;;;;;;;;;;;;;;9.78;38.94;100286.25;4485489;31;34226;-86
2022/12/28 04:06:26;;;;;;;;;;;;;;;9.94;38.60;100280.75;4484777;32;34169;-84
2022/12/28 04:08:53;;;;;;;;;;;;;;;9.70;38.94;100289.44;4491923;31;34741;-92
2022/12/28 04:11:25;;;;;;;;;;;;;;;10.06;38.51;100281.13;4495858;31;33808;-88
2022/12/28 04:13:52;;;;;;;;;;;;;;;9.90;38.89;100281.47;4501406;31;33499;-95
2022/12/28 04:16:20;;;;;;;;;;;;;;;9.74;39.37;100280.09;4497507;31;34463;-90
2022/12/28 04:18:48;;;;;;;;;;;;;;;9.93;38.99;100279.00;4484937;31;34432;-82
2022/12/28 04:21:15;;;;;;;;;;;;;;;9.91;38.83;100270.28;4494554;31;34342;-81
2022/12/28 04:23:42;;;;;;;;;;;;;;;9.95;38.85;100267.81;4487091;31;33983;-86
2022/12/28 04:26:11;;;;;;;;;;;;;;;9.85;39.07;100277.81;4498053;31;35161;-82
2022/12/28 04:28:38;;;;;;;;;;;;;;;9.51;39.75;100271.53;4483966;32;33576;-81
2022/12/28 04:31:10;;;;;;;;;;;;;;;9.32;40.49;100271.69;4483861;31;33933;-81
2022/12/28 04:33:39;;;;;;;;;;;;;;;9.29;40.63;100264.72;4471053;32;35134;-89
2022/12/28 04:36:11;;;;;;;;;;;;;;;9.31;40.37;100262.16;4484411;32;35137;-94
2022/12/28 04:38:38;;;;;;;;;;;;;;;9.38;40.24;100269.31;4484610;32;33372;-85
2022/12/28 04:41:06;;;;;;;;;;;;;;;9.61;39.95;100265.81;4485036;31;35152;-82
2022/12/28 04:43:34;;;;;;;;;;;;;;;9.43;40.14;100254.81;4469489;32;34343;-80
2022/12/28 04:46:03;;;;;;;;;;;;;;;9.41;40.32;100264.25;4483932;32;34548;-87
2022/12/28 04:48:30;;;;;;;;;;;;;;;9.40;40.34;100265.09;4484077;32;34555;-81
2022/12/28 04:50:57;;;;;;;;;;;;;;;9.44;40.15;100269.56;4481466;31;33932;-92
2022/12/28 04:53:24;;;;;;;;;;;;;;;9.59;39.90;100267.50;4483465;32;33981;-81
2022/12/28 04:55:52;;;;;;;;;;;;;;;9.52;40.14;100268.09;4483170;31;34012;-81
2022/12/28 04:58:19;;;;;;;;;;;;;;;9.77;39.61;100280.16;4482812;31;33394;-81
2022/12/28 05:00:47;;;;;;;;;;;;;;;9.78;39.45;100276.75;4483907;31;34277;-83
2022/12/28 05:03:16;;;;;;;;;;;;;;;9.78;39.68;100284.53;4500005;31;34424;-82
2022/12/28 05:05:43;;;;;;;;;;;;;;;9.86;39.28;100277.03;4494985;31;35155;-93
2022/12/28 05:08:10;;;;;;;;;;;;;;;9.82;39.20;100280.34;4477394;32;33457;-81
2022/12/28 05:10:38;;;;;;;;;;;;;;;9.88;39.19;100277.94;4487301;31;33499;-81
2022/12/28 05:13:05;;;;;;;;;;;;;;;9.79;39.35;100272.47;4486464;31;34370;-95
2022/12/28 05:15:32;;;;;;;;;;;;;;;10.00;38.84;100270.59;4483445;31;35280;-81
2022/12/28 05:17:59;;;;;;;;;;;;;;;10.10;38.14;100274.34;4484323;32;33693;-94
2022/12/28 05:20:27;;;;;;;;;;;;;;;10.04;38.01;100274.13;4484502;31;34194;-89
2022/12/28 05:22:54;;;;;;;;;;;;;;;9.70;38.70;100276.50;4484232;32;34251;-81
2022/12/28 05:25:21;;;;;;;;;;;;;;;9.83;38.65;100279.50;4493826;31;34509;-82
2022/12/28 05:27:48;;;;;;;;;;;;;;;9.87;38.52;100277.06;4494108;31;34407;-93
2022/12/28 05:30:16;;;;;;;;;;;;;;;9.83;38.18;100282.09;4483320;31;34178;-94
2022/12/28 05:32:43;;;;;;;;;;;;;;;9.90;38.23;100289.25;4492944;31;34394;-81
2022/12/28 05:35:10;;;;;;;;;;;;;;;9.76;38.59;100283.59;4483829;32;35108;-95
2022/12/28 05:37:38;;;;;;;;;;;;;;;9.74;38.54;100274.91;4482428;32;33557;-89
2022/12/28 05:40:05;;;;;;;;;;;;;;;9.72;38.67;100272.25;4489220;31;33793;-79
2022/12/28 05:42:33;;;;;;;;;;;;;;;9.92;37.95;100269.44;4485827;32;34377;-94
2022/12/28 05:45:01;;;;;;;;;;;;;;;9.82;37.95;100280.34;4486615;32;34171;-93
2022/12/28 05:47:28;;;;;;;;;;;;;;;9.64;38.33;100278.88;4485706;32;34240;-92
2022/12/28 05:49:55;;;;;;;;;;;;;;;9.69;38.43;100266.94;4491236;31;33845;-95
2022/12/28 05:52:23;;;;;;;;;;;;;;;9.54;38.79;100284.56;4492168;31;34504;-82
2022/12/28 05:54:50;;;;;;;;;;;;;;;9.49;38.98;100268.00;4485552;31;35221;-80
2022/12/28 05:57:17;;;;;;;;;;;;;;;9.64;38.95;100268.50;4502031;31;33821;-90
2022/12/28 05:59:45;;;;;;;;;;;;;;;9.66;38.73;100277.22;4501954;31;34079;-95
2022/12/28 06:02:12;;;;;;;;;;;;;;;9.64;38.87;100280.59;4494706;31;35121;-86
2022/12/28 06:04:40;;;;;;;;;;;;;;;9.68;38.92;100290.22;4502065;31;34545;-81
2022/12/28 06:07:07;;;;;;;;;;;;;;;9.74;38.81;100280.97;4502028;31;33792;-81
2022/12/28 06:09:34;;;;;;;;;;;;;;;9.79;38.60;100275.06;4495681;31;35151;-81
2022/12/28 06:12:03;;;;;;;;;;;;;;;9.74;38.56;100277.50;4484336;31;34162;-95
2022/12/28 06:14:30;;;;;;;;;;;;;;;9.86;38.28;100275.31;4469418;32;33672;-81
2022/12/28 06:16:58;;;;;;;;;;;;;;;9.77;38.57;100279.28;4479684;32;32815;-93
2022/12/28 06:19:25;;;;;;;;;;;;;;;9.75;38.75;100277.53;4491520;32;34459;-91
2022/12/28 06:21:53;;;;;;;;;;;;;;;9.83;38.49;100274.31;4484969;31;34505;-95
2022/12/28 06:24:20;;;;;;;;;;;;;;;9.80;38.19;100280.28;4486569;32;34431;-92
2022/12/28 06:26:48;;;;;;;;;;;;;;;9.84;38.15;100281.25;4489129;32;33829;-95
2022/12/28 06:29:17;;;;;;;;;;;;;;;9.62;38.72;100280.53;4500611;31;34261;-95
2022/12/28 06:31:49;;;;;;;;;;;;;;;9.75;38.54;100268.88;4493496;31;35032;-92
2022/12/28 06:34:17;;;;;;;;;;;;;;;9.77;38.36;100280.16;4495955;31;34241;-87
2022/12/28 06:36:45;;;;;;;;;;;;;;;9.81;38.35;100278.56;4505130;31;33117;-95
2022/12/28 06:39:12;;;;;;;;;;;;;;;9.80;38.38;100285.44;4498725;31;35074;-94
2022/12/28 06:41:40;;;;;;;;;;;;;;;9.75;38.59;100281.84;4489269;31;34370;-91
2022/12/28 06:44:08;;;;;;;;;;;;;;;9.63;38.81;100294.37;4491816;32;34523;-94
2022/12/28 06:46:35;;;;;;;;;;;;;;;9.61;38.79;100289.13;4506175;31;33007;-86
2022/12/28 06:49:03;;;;;;;;;;;;;;;9.70;38.59;100286.00;4491112;31;34304;-86
2022/12/28 06:51:31;;;;;;;;;;;;;;;9.52;38.94;100291.41;4480839;31;34306;-86
2022/12/28 06:53:59;;;;;;;;;;;;;;;9.41;39.42;100287.56;4488127;31;34036;-94
2022/12/28 06:56:30;;;;;;;;;;;;;;;9.64;39.17;100290.94;4493502;32;33875;-94
2022/12/28 06:58:57;;;;;;;;;;;;;;;9.68;38.87;100288.50;4478144;32;34053;-94
2022/12/28 07:01:33;;;;;;;;;;;;;;;9.62;38.81;100298.66;4490640;31;35693;-84
2022/12/28 07:04:02;;;;;;;;;;;;;;;9.72;38.76;100292.97;4491651;32;35199;-92
2022/12/28 07:06:29;;;;;;;;;;;;;;;9.68;39.07;100285.91;4477755;32;33576;-86
2022/12/28 07:08:58;;;;;;;;;;;;;;;9.78;39.11;100291.44;4491371;32;34102;-89
2022/12/28 07:11:25;;;;;;;;;;;;;;;9.83;39.01;100287.28;4489743;31;34275;-90
2022/12/28 07:13:53;;;;;;;;;;;;;;;9.92;38.73;100285.84;4491493;32;34382;-84
2022/12/28 07:16:21;;;;;;;;;;;;;;;10.00;38.32;100299.09;4491321;32;34480;-89
2022/12/28 07:18:48;;;;;;;;;;;;;;;9.85;38.56;100288.19;4476107;32;35063;-89
2022/12/28 07:21:17;;;;;;;;;;;;;;;9.85;38.56;100291.69;4479653;31;34371;-95
2022/12/28 07:23:46;;;;;;;;;;;;;;;9.95;38.55;100287.66;4490511;31;35008;-87
2022/12/28 07:26:14;;;;;;;;;;;;;;;9.92;38.80;100290.16;4491081;31;33743;-91
2022/12/28 07:28:42;;;;;;;;;;;;;;;9.87;38.73;100276.19;4502894;31;34927;-91
2022/12/28 07:31:11;;;;;;;;;;;;;;;9.90;38.82;100277.16;4490602;31;35090;-96
2022/12/28 07:33:39;;;;;;;;;;;;;;;10.02;38.69;100276.69;4504562;31;34304;-95
2022/12/28 07:36:08;;;;;;;;;;;;;;;10.07;38.81;100276.81;4506337;31;34964;-94
2022/12/28 07:38:36;;;;;;;;;;;;;;;9.96;39.17;100282.56;4490788;31;35070;-79
2022/12/28 07:41:07;;;;;;;;;;;;;;;10.06;39.09;100270.78;4493885;31;34027;-95
2022/12/28 07:43:34;;;;;;;;;;;;;;;10.02;39.09;100271.50;4490452;31;35219;-81
2022/12/28 07:46:03;;;;;;;;;;;;;;;9.93;39.31;100276.41;4489647;32;33497;-93
2022/12/28 07:48:30;;;;;;;;;;;;;;;10.05;39.02;100287.16;4490689;32;35126;-96
2022/12/28 07:51:03;;;;;;;;;;;;;;;10.08;39.06;100284.66;4490671;31;34067;-89
2022/12/28 07:53:31;;;;;;;;;;;;;;;10.10;39.12;100282.13;4499893;31;34679;-94
2022/12/28 07:55:58;;;;;;;;;;;;;;;10.11;39.13;100287.34;4488101;32;33527;-82
2022/12/28 07:58:25;;;;;;;;;;;;;;;10.31;38.64;100281.97;4487824;32;34883;-95
2022/12/28 08:00:53;;;;;;;;;;;;;;;10.12;39.00;100291.72;4485832;31;34512;-82
2022/12/28 08:03:20;;;;;;;;;;;;;;;10.16;38.90;100303.06;4506334;31;34473;-95
2022/12/28 08:05:47;;;;;;;;;;;;;;;10.11;38.86;100302.88;4492601;31;33462;-93
2022/12/28 08:08:15;;;;;;;;;;;;;;;9.99;39.41;100300.78;4488343;32;35004;-90
2022/12/28 08:10:42;;;;;;;;;;;;;;;10.22;38.98;100298.06;4488522;31;34500;-89
2022/12/28 08:13:09;;;;;;;;;;;;;;;10.11;39.06;100308.06;4496637;31;35164;-94
2022/12/28 08:15:36;;;;;;;;;;;;;;;10.13;38.97;100301.25;4485066;32;34763;-83
2022/12/28 08:18:04;;;;;;;;;;;;;;;10.33;38.52;100295.84;4486149;31;33998;-94
2022/12/28 08:20:32;;;;;;;;;;;;;;;10.17;38.86;100287.53;4489749;31;35220;-89
2022/12/28 08:23:02;;;;;;;;;;;;;;;10.22;39.04;100293.75;4502421;31;34494;-86
2022/12/28 08:25:29;;;;;;;;;;;;;;;10.09;39.44;100288.13;4504427;31;33826;-90
2022/12/28 08:27:57;;;;;;;;;;;;;;;10.02;39.86;100286.16;4501743;31;34095;-94
2022/12/28 08:30:25;;;;;;;;;;;;;;;10.16;39.88;100277.16;4491241;31;34229;-94
2022/12/28 08:32:52;;;;;;;;;;;;;;;10.00;40.31;100270.59;4477370;32;34185;-82
2022/12/28 08:35:20;;;;;;;;;;;;;;;10.08;40.26;100276.91;4473944;32;32883;-93
2022/12/28 08:37:48;;;;;;;;;;;;;;;9.91;40.71;100285.81;4494809;31;34178;-91
2022/12/28 08:40:16;;;;;;;;;;;;;;;9.19;41.34;100273.84;4490246;31;35407;-81
2022/12/28 08:42:43;;;;;;;;;;;;;;;9.33;41.41;100284.69;4491985;31;33888;-86
2022/12/28 08:45:11;;;;;;;;;;;;;;;9.65;40.87;100288.37;4481258;32;33616;-81
2022/12/28 08:47:38;;;;;;;;;;;;;;;9.36;39.92;100291.69;4481807;32;34904;-86
2022/12/28 08:50:05;;;;;;;;;;;;;;;9.35;41.48;100300.25;4486026;31;34496;-83
2022/12/28 08:52:33;;;;;;;;;;;;;;;9.74;40.53;100291.31;4484132;31;34634;-81
2022/12/28 08:55:00;;;;;;;;;;;;;;;9.85;40.00;100288.19;4481980;32;34497;-88
2022/12/28 08:57:27;;;;;;;;;;;;;;;9.99;39.94;100292.13;4484709;32;34027;-95
2022/12/28 08:59:54;;;;;;;;;;;;;;;10.50;37.47;100281.72;4475258;31;34210;-89
2022/12/28 09:02:22;;;;;;;;;;;;;;;9.90;38.82;100300.47;4487121;31;34705;-82
2022/12/28 09:04:49;;;;;;;;;;;;;;;10.29;39.73;100294.00;4483592;32;33688;-81
2022/12/28 09:07:16;;;;;;;;;;;;;;;10.03;40.74;100296.56;4481311;31;34254;-92
2022/12/28 09:09:44;;;;;;;;;;;;;;;10.01;38.87;100298.25;4481391;32;34005;-90
2022/12/28 09:12:11;;;;;;;;;;;;;;;10.61;37.88;100284.63;4483202;32;34767;-89
2022/12/28 09:14:38;;;;;;;;;;;;;;;10.15;38.52;100283.12;4474540;32;34006;-93
2022/12/28 09:17:06;;;;;;;;;;;;;;;10.15;37.81;100280.53;4474298;32;34905;-90
2022/12/28 09:19:33;;;;;;;;;;;;;;;10.04;39.47;100274.13;4487926;32;34377;-88
2022/12/28 09:22:00;;;;;;;;;;;;;;;9.99;38.37;100267.09;4500709;31;35250;-80
2022/12/28 09:24:28;;;;;;;;;;;;;;;10.64;37.09;100251.88;4496475;31;32815;-94
2022/12/28 09:26:55;;;;;;;;;;;;;;;10.31;37.23;100249.16;4485840;32;34092;-89
2022/12/28 09:29:22;;;;;;;;;;;;;;;9.64;38.42;100255.56;4484156;32;35199;-94
2022/12/28 09:31:49;;;;;;;;;;;;;;;10.25;38.05;100254.13;4491734;32;34538;-88
2022/12/28 09:34:17;;;;;;;;;;;;;;;10.36;38.63;100238.91;4489743;31;33561;-80
2022/12/28 09:37:05;;;;;;;;;;;;;;;10.69;37.32;100239.06;4477072;31;34161;-92
2022/12/28 09:39:32;;;;;;;;;;;;;;;11.20;36.43;100239.63;4467997;31;34339;-82
2022/12/28 09:42:20;;;;;;;;;;;;;;;11.10;37.09;100242.84;4472094;31;34172;-84
2022/12/28 09:44:48;;;;;;;;;;;;;;;11.06;37.29;100243.59;4482006;31;33779;-83
2022/12/28 09:47:20;;;;;;;;;;;;;;;11.16;38.22;100235.19;4482459;31;34202;-81
2022/12/28 09:49:57;;;;;;;;;;;;;;;11.07;37.74;100245.34;4482567;31;34586;-91
2022/12/28 09:52:26;;;;;;;;;;;;;;;11.30;36.96;100237.31;4473870;31;33744;-92
2022/12/28 09:54:54;;;;;;;;;;;;;;;10.92;35.94;100234.53;4468553;31;33246;-90
2022/12/28 09:57:21;;;;;;;;;;;;;;;10.64;36.55;100228.53;4472151;32;34009;-89
2022/12/28 09:59:49;;;;;;;;;;;;;;;11.00;36.97;100222.66;4469757;31;34135;-82
2022/12/28 10:02:17;;;;;;;;;;;;;;;11.01;37.71;100226.13;4481829;31;34015;-91
2022/12/28 10:04:48;;;;;;;;;;;;;;;11.38;36.39;100209.81;4479532;31;34147;-82
2022/12/28 10:07:15;;;;;;;;;;;;;;;10.67;36.96;100199.22;4467478;32;33906;-83
2022/12/28 10:09:42;;;;;;;;;;;;;;;10.19;36.93;100197.78;4475660;31;34054;-91
2022/12/28 10:12:16;;;;;;;;;;;;;;;10.27;37.04;100202.38;4481308;31;35783;-93
2022/12/28 10:14:47;;;;;;;;;;;;;;;10.63;37.38;100200.84;4468686;32;34472;-83
2022/12/28 10:17:15;;;;;;;;;;;;;;;10.36;38.37;100189.66;4481186;31;34072;-92
2022/12/28 10:19:46;;;;;;;;;;;;;;;10.27;37.41;100179.03;4469762;32;34004;-90
2022/12/28 10:22:17;;;;;;;;;;;;;;;10.31;36.95;100181.75;4464674;31;34340;-89
2022/12/28 10:24:45;;;;;;;;;;;;;;;10.33;36.90;100190.44;4478374;32;33721;-89
2022/12/28 10:27:28;;;;;;;;;;;;;;;10.66;36.49;100193.16;4478026;31;35365;-84
2022/12/28 10:29:56;;;;;;;;;;;;;;;10.70;36.69;100196.72;4472970;31;34934;-81
2022/12/28 10:32:23;;;;;;;;;;;;;;;10.11;37.56;100188.88;4482138;31;32924;-92
2022/12/28 10:34:53;;;;;;;;;;;;;;;10.37;37.58;100186.22;4492990;31;33398;-90
2022/12/28 10:37:21;;;;;;;;;;;;;;;10.95;36.25;100190.53;4481981;31;34426;-88
2022/12/28 10:39:49;;;;;;;;;;;;;;;11.26;36.46;100193.94;4470312;31;34065;-87
2022/12/28 10:42:18;;;;;;;;;;;;;;;10.87;36.46;100189.41;4470008;31;34512;-93
2022/12/28 10:44:47;;;;;;;;;;;;;;;10.77;36.87;100187.41;4469881;31;33391;-85
2022/12/28 10:47:24;;;;;;;;;;;;;;;10.76;37.26;100189.13;4486839;31;33790;-80
2022/12/28 10:49:51;;;;;;;;;;;;;;;11.03;36.92;100191.59;4481026;31;34323;-96
2022/12/28 10:52:38;;;;;;;;;;;;;;;10.78;37.83;100189.16;4487213;31;34063;-92
2022/12/28 10:55:38;;;;;;;;;;;;;;;10.96;37.20;100192.28;4470800;32;33528;-94
2022/12/28 10:58:13;;;;;;;;;;;;;;;11.06;37.34;100190.78;4456553;31;34211;-86
2022/12/28 11:01:02;;;;;;;;;;;;;;;11.62;36.54;100189.66;4468113;32;33884;-88
2022/12/28 11:03:30;;;;;;;;;;;;;;;11.48;36.69;100190.16;4453239;32;34098;-81
2022/12/28 11:06:17;;;;;;;;;;;;;;;11.68;36.74;100194.16;4466225;32;33573;-84
2022/12/28 11:09:03;;;;;;;;;;;;;;;12.16;35.67;100184.06;4482401;31;34550;-88
2022/12/28 11:11:30;;;;;;;;;;;;;;;11.99;36.02;100184.53;4477645;31;34797;-91
2022/12/28 11:13:58;;;;;;;;;;;;;;;12.36;35.67;100183.63;4483660;32;35416;-90
2022/12/28 11:16:26;;;;;;;;;;;;;;;12.00;35.96;100188.88;4480240;32;33333;-86
2022/12/28 11:18:53;;;;;;;;;;;;;;;11.25;36.96;100171.38;4469957;32;34350;-82
2022/12/28 11:21:21;;;;;;;;;;;;;;;11.79;36.22;100171.03;4471679;32;34409;-93
2022/12/28 11:23:48;;;;;;;;;;;;;;;11.66;36.61;100162.91;4470625;32;34592;-92
2022/12/28 11:26:17;;;;;;;;;;;;;;;11.34;37.90;100166.44;4469546;32;34346;-90
2022/12/28 11:28:45;;;;;;;;;;;;;;;10.74;39.03;100164.84;4469877;31;33747;-82
2022/12/28 11:31:39;;;;;;;;;;;;;;;11.16;37.34;100167.72;4469342;32;34100;-88
2022/12/28 11:34:11;;;;;;;;;;;;;;;11.10;37.92;100159.78;4482115;31;34250;-87
2022/12/28 11:36:39;;;;;;;;;;;;;;;11.66;36.74;100152.53;4485547;31;34619;-86
2022/12/28 11:39:25;;;;;;;;;;;;;;;11.17;37.84;100138.34;4486505;31;33644;-93
2022/12/28 11:41:54;;;;;;;;;;;;;;;10.86;38.30;100125.37;4468376;32;35352;-81
2022/12/28 11:44:41;;;;;;;;;;;;;;;11.39;36.83;100129.38;4476530;31;34700;-83
2022/12/28 11:47:14;;;;;;;;;;;;;;;10.63;37.50;100133.41;4481448;31;34528;-93
2022/12/28 11:49:42;;;;;;;;;;;;;;;11.10;36.96;100127.75;4479147;32;34185;-95
2022/12/28 11:52:16;;;;;;;;;;;;;;;11.03;37.72;100123.25;4467386;32;34368;-93
2022/12/28 11:54:54;;;;;;;;;;;;;;;10.65;37.70;100118.78;4468406;32;34030;-87
2022/12/28 11:57:40;;;;;;;;;;;;;;;11.05;38.05;100119.84;4477695;32;33990;-92
2022/12/28 12:00:23;;;;;;;;;;;;;;;11.48;37.04;100107.97;4484277;32;34040;-94
2022/12/28 12:02:59;;;;;;;;;;;;;;;10.79;38.48;100102.72;4488078;31;33837;-93
2022/12/28 12:05:36;;;;;;;;;;;;;;;10.61;38.54;100098.81;4507326;31;34435;-94
2022/12/28 12:08:15;;;;;;;;;;;;;;;10.92;37.79;100105.69;4508716;31;33594;-90
2022/12/28 12:10:43;;;;;;;;;;;;;;;10.89;38.19;100099.53;4508156;31;33905;-88
2022/12/28 12:13:26;;;;;;;;;;;;;;;11.09;37.83;100097.44;4502607;31;35194;-87
2022/12/28 12:16:02;;;;;;;;;;;;;;;10.17;40.00;100090.59;4483419;32;34475;-90
2022/12/28 12:18:31;;;;;;;;;;;;;;;10.14;40.27;100079.28;4461793;32;33709;-85
2022/12/28 12:21:02;;;;;;;;;;;;;;;10.60;39.26;100072.81;4489747;31;34673;-92
2022/12/28 12:23:39;;;;;;;;;;;;;;;10.51;39.77;100070.84;4487908;31;33942;-86
2022/12/28 12:26:21;;;;;;;;;;;;;;;10.66;40.19;100070.41;4484715;31;34840;-92
2022/12/28 12:28:52;;;;;;;;;;;;;;;10.72;39.45;100067.97;4497386;31;34431;-82
2022/12/28 12:31:36;;;;;;;;;;;;;;;11.56;38.05;100054.47;4483014;31;33476;-92
2022/12/28 12:34:30;;;;;;;;;;;;;;;11.63;37.73;100061.56;4482627;31;35166;-84
2022/12/28 12:36:57;;;;;;;;;;;;;;;11.12;38.67;100061.19;4489790;31;34240;-92
2022/12/28 12:39:43;;;;;;;;;;;;;;;11.79;38.14;100051.53;4484887;31;33683;-91
2022/12/28 12:42:17;;;;;;;;;;;;;;;10.60;40.13;100054.66;4484585;31;34917;-90
2022/12/28 12:44:50;;;;;;;;;;;;;;;12.14;37.10;100050.56;4476086;31;34400;-94
2022/12/28 12:47:41;;;;;;;;;;;;;;;12.37;36.43;100048.44;4493132;31;34204;-92
2022/12/28 12:50:11;;;;;;;;;;;;;;;11.86;37.34;100045.66;4480056;31;33662;-89
2022/12/28 12:52:45;;;;;;;;;;;;;;;12.34;36.95;100045.75;4478961;32;33914;-90
2022/12/28 12:55:21;;;;;;;;;;;;;;;12.45;37.14;100045.97;4474541;31;34436;-89
2022/12/28 12:58:02;;;;;;;;;;;;;;;12.94;35.48;100035.59;4482659;31;34401;-91
2022/12/28 13:00:49;;;;;;;;;;;;;;;12.87;35.14;100032.88;4464737;31;33337;-84
2022/12/28 13:03:26;;;;;;;;;;;;;;;12.94;34.74;100026.06;4452299;32;34091;-84
2022/12/28 13:05:54;;;;;;;;;;;;;;;11.81;36.20;100031.62;4475322;32;34994;-88
2022/12/28 13:08:23;;;;;;;;;;;;;;;11.50;37.58;100017.97;4494276;31;34563;-82
2022/12/28 13:10:50;;;;;;;;;;;;;;;12.40;35.66;100019.03;4482342;31;33255;-91
2022/12/28 13:13:23;;;;;;;;;;;;;;;12.00;36.96;100028.62;4481280;31;33999;-87
2022/12/28 13:15:51;;;;;;;;;;;;;;;12.51;35.58;100019.22;4481124;31;35199;-88
2022/12/28 13:18:19;;;;;;;;;;;;;;;11.66;36.79;100025.25;4472136;31;33901;-83
2022/12/28 13:21:06;;;;;;;;;;;;;;;12.33;36.71;100023.22;4477022;32;33936;-82
2022/12/28 13:23:43;;;;;;;;;;;;;;;12.09;35.81;100009.75;4475033;31;33693;-84
2022/12/28 13:26:11;;;;;;;;;;;;;;;12.20;35.57;100000.44;4490176;31;33792;-92